Time;durP1;ratioP1;P1;durP2;ratioP2;P2;SDS_P1;SDS_P2;PMS_P1;PMS_P2;Temp;Humidity;BMP_temperature;BMP_pressure;BME280_temperature;BME280_humidity;BME280_pressure;Samples;Min_cycle;Max_cycle;Signal;HPM_P1;HPM_P2
2024/01/07 00:01:49;;;;;;;15.53;9.07;;;4.00;52.90;;;;;;5028509;28;46454;-66
2024/01/07 00:04:18;;;;;;;12.25;8.50;;;4.00;51.60;;;;;;5028495;28;46368;-65
2024/01/07 00:06:44;;;;;;;16.13;9.23;;;4.00;51.70;;;;;;5029408;28;46833;-65
2024/01/07 00:09:12;;;;;;;13.67;8.40;;;4.00;51.60;;;;;;5032560;28;47994;-65
2024/01/07 00:11:37;;;;;;;16.20;9.75;;;4.00;51.60;;;;;;5031229;28;46531;-65
2024/01/07 00:14:03;;;;;;;14.00;9.87;;;4.00;51.70;;;;;;5027421;28;46469;-65
2024/01/07 00:16:28;;;;;;;15.33;9.80;;;3.90;51.70;;;;;;5030836;28;46396;-66
2024/01/07 00:18:54;;;;;;;15.87;9.27;;;4.00;51.60;;;;;;5034029;28;46365;-66
2024/01/07 00:21:20;;;;;;;13.23;8.53;;;4.00;51.60;;;;;;5029597;28;46405;-64
2024/01/07 00:23:45;;;;;;;17.97;9.43;;;4.00;51.40;;;;;;5030538;28;46541;-65
2024/01/07 00:26:11;;;;;;;13.17;8.70;;;4.10;51.50;;;;;;5028769;28;46555;-65
2024/01/07 00:28:37;;;;;;;13.33;8.00;;;4.00;51.50;;;;;;5031558;28;47217;-65
2024/01/07 00:31:02;;;;;;;14.37;9.47;;;4.00;51.50;;;;;;5026974;28;46475;-64
2024/01/07 00:33:31;;;;;;;16.53;9.20;;;4.10;51.50;;;;;;5030679;28;46602;-64
2024/01/07 00:35:57;;;;;;;19.03;10.50;;;4.10;51.40;;;;;;5026333;28;46809;-66
2024/01/07 00:38:22;;;;;;;14.10;9.03;;;4.00;51.60;;;;;;5027653;28;47145;-66
2024/01/07 00:40:48;;;;;;;13.70;9.57;;;4.00;51.80;;;;;;5028206;28;46588;-67
2024/01/07 00:43:14;;;;;;;15.77;9.20;;;3.90;52.10;;;;;;5032206;28;46432;-64
2024/01/07 00:45:39;;;;;;;14.67;9.40;;;3.80;52.50;;;;;;5031045;28;46135;-66
2024/01/07 00:48:05;;;;;;;18.60;10.27;;;3.70;53.00;;;;;;5030649;28;46631;-65
2024/01/07 00:50:31;;;;;;;15.50;10.43;;;3.60;53.30;;;;;;5036694;28;46413;-65
2024/01/07 00:52:56;;;;;;;13.20;9.33;;;3.50;53.70;;;;;;5031635;28;46352;-65
2024/01/07 00:55:23;;;;;;;15.87;9.33;;;3.50;53.80;;;;;;5029185;28;46515;-65
2024/01/07 00:57:49;;;;;;;15.93;9.77;;;3.60;53.60;;;;;;5029214;28;47470;-65
2024/01/07 01:00:15;;;;;;;14.73;9.77;;;3.50;53.90;;;;;;5029306;28;46513;-66
2024/01/07 01:02:41;;;;;;;15.27;9.60;;;3.50;53.90;;;;;;5025577;28;45922;-65
2024/01/07 01:05:07;;;;;;;17.57;9.87;;;3.50;53.80;;;;;;5028050;28;46656;-65
2024/01/07 01:07:32;;;;;;;15.40;10.50;;;3.50;53.80;;;;;;5012003;28;48266;-65
2024/01/07 01:09:58;;;;;;;13.87;9.23;;;3.60;53.60;;;;;;5031617;28;46319;-65
2024/01/07 01:12:24;;;;;;;14.77;9.57;;;3.60;53.20;;;;;;5028110;28;46411;-66
2024/01/07 01:14:49;;;;;;;14.00;9.90;;;3.70;52.90;;;;;;5027773;28;45929;-65
2024/01/07 01:17:15;;;;;;;15.33;9.83;;;3.70;53.00;;;;;;5031349;28;47847;-65
2024/01/07 01:19:40;;;;;;;13.63;9.30;;;3.60;53.20;;;;;;5033155;28;46476;-65
2024/01/07 01:22:06;;;;;;;13.67;9.63;;;3.50;53.40;;;;;;5028339;28;46598;-66
2024/01/07 01:24:32;;;;;;;15.03;9.53;;;3.40;53.60;;;;;;5029712;28;46456;-65
2024/01/07 01:26:57;;;;;;;14.90;10.20;;;3.40;54.00;;;;;;5028067;28;47278;-66
2024/01/07 01:29:23;;;;;;;13.93;9.33;;;3.40;54.00;;;;;;5026232;28;46503;-65
2024/01/07 01:31:49;;;;;;;13.85;9.57;;;3.40;53.80;;;;;;5013499;28;46420;-65
2024/01/07 01:34:15;;;;;;;15.10;9.53;;;3.50;53.70;;;;;;5030788;28;46704;-65
2024/01/07 01:36:40;;;;;;;21.17;10.20;;;3.50;53.70;;;;;;5027633;28;47081;-65
2024/01/07 01:39:06;;;;;;;16.40;10.27;;;3.50;53.30;;;;;;5028024;28;46692;-65
2024/01/07 01:41:33;;;;;;;16.03;10.50;;;3.50;53.30;;;;;;5029219;28;46516;-65
2024/01/07 01:43:59;;;;;;;14.17;9.50;;;3.50;53.20;;;;;;5011488;28;46473;-65
2024/01/07 01:46:25;;;;;;;12.38;8.38;;;3.60;53.20;;;;;;5030994;28;47253;-65
2024/01/07 01:48:51;;;;;;;16.77;10.25;;;3.60;53.20;;;;;;5032213;28;46482;-65
2024/01/07 01:51:17;;;;;;;16.67;10.53;;;3.60;53.10;;;;;;5029285;28;46589;-66
2024/01/07 01:53:44;;;;;;;16.00;9.80;;;3.60;53.10;;;;;;5028523;28;46407;-66
2024/01/07 01:56:10;;;;;;;14.30;10.20;;;3.60;52.90;;;;;;5026534;28;47067;-65
2024/01/07 01:58:36;;;;;;;13.43;9.50;;;3.60;52.90;;;;;;5028108;28;46778;-66
2024/01/07 02:01:03;;;;;;;13.63;9.63;;;3.60;53.10;;;;;;5027713;28;46301;-65
2024/01/07 02:03:29;;;;;;;16.97;11.17;;;3.70;53.10;;;;;;5026258;28;46318;-65
2024/01/07 02:05:57;;;;;;;15.37;10.20;;;3.70;53.10;;;;;;5025328;28;46593;-65
2024/01/07 02:08:23;;;;;;;15.82;10.45;;;3.70;52.90;;;;;;5028311;28;46436;-65
2024/01/07 02:10:48;;;;;;;15.40;9.93;;;3.70;53.20;;;;;;5030088;28;46353;-65
2024/01/07 02:13:14;;;;;;;16.90;9.70;;;3.70;53.10;;;;;;5029238;28;46912;-70
2024/01/07 02:15:39;;;;;;;14.57;9.70;;;3.70;53.10;;;;;;5028808;28;47020;-70
2024/01/07 02:18:05;;;;;;;16.33;10.00;;;3.70;52.90;;;;;;5032636;28;46388;-70
2024/01/07 02:20:31;;;;;;;13.87;8.90;;;3.80;52.90;;;;;;5029954;28;46758;-70
2024/01/07 02:22:57;;;;;;;15.80;10.27;;;3.80;52.70;;;;;;5028689;28;46670;-71
2024/01/07 02:25:23;;;;;;;12.80;9.93;;;3.80;52.60;;;;;;5029812;28;47022;-71
2024/01/07 02:27:49;;;;;;;14.00;8.80;;;3.90;52.70;;;;;;5029978;28;46673;-71
2024/01/07 02:30:14;;;;;;;15.80;10.50;;;3.90;52.90;;;;;;5028412;28;46516;-70
2024/01/07 02:32:40;;;;;;;16.47;9.67;;;3.90;52.70;;;;;;5029027;28;46462;-70
2024/01/07 02:35:06;;;;;;;14.60;9.90;;;3.90;52.90;;;;;;5025033;28;47470;-70
2024/01/07 02:37:32;;;;;;;16.43;9.73;;;3.90;52.80;;;;;;5029272;28;46468;-70
2024/01/07 02:39:59;;;;;;;12.88;8.82;;;3.90;52.80;;;;;;5010475;28;46435;-69
2024/01/07 02:42:24;;;;;;;16.73;9.90;;;3.90;52.90;;;;;;5028471;28;46588;-69
2024/01/07 02:44:50;;;;;;;14.60;9.40;;;3.90;52.90;;;;;;5031088;28;46488;-71
2024/01/07 02:47:16;;;;;;;16.77;9.70;;;3.80;53.10;;;;;;5026181;28;46479;-71
2024/01/07 02:49:41;;;;;;;14.53;9.90;;;3.80;53.10;;;;;;5029469;28;46304;-70
2024/01/07 02:52:07;;;;;;;14.80;9.67;;;3.80;53.00;;;;;;5031533;28;46471;-70
2024/01/07 02:54:32;;;;;;;16.13;10.10;;;3.80;53.10;;;;;;5027120;28;46364;-69
2024/01/07 02:56:58;;;;;;;17.00;10.77;;;3.80;52.90;;;;;;5030563;28;46733;-70
2024/01/07 02:59:23;;;;;;;15.10;10.00;;;3.80;52.90;;;;;;5029443;28;45746;-70
2024/01/07 03:01:49;;;;;;;16.80;10.50;;;3.80;53.00;;;;;;5029529;28;46328;-72
2024/01/07 03:04:16;;;;;;;15.23;10.23;;;3.80;52.80;;;;;;5026043;28;46544;-72
2024/01/07 03:06:41;;;;;;;16.80;10.40;;;3.90;52.80;;;;;;5028307;28;46415;-71
2024/01/07 03:09:08;;;;;;;15.20;9.60;;;3.80;52.70;;;;;;5030235;28;46465;-71
2024/01/07 03:11:33;;;;;;;15.03;9.87;;;3.80;52.70;;;;;;5028768;28;46447;-71
2024/01/07 03:13:59;;;;;;;16.80;10.53;;;3.90;52.90;;;;;;5028129;28;47842;-71
2024/01/07 03:16:26;;;;;;;13.03;9.03;;;3.90;53.00;;;;;;5028678;28;46453;-71
2024/01/07 03:18:52;;;;;;;13.25;9.35;;;3.90;53.00;;;;;;5031069;28;46404;-71
2024/01/07 03:21:22;;;;;;;14.73;9.60;;;3.90;52.90;;;;;;5033796;28;46391;-72
2024/01/07 03:23:49;;;;;;;14.10;9.50;;;3.90;52.90;;;;;;5034354;28;46434;-70
2024/01/07 03:26:17;;;;;;;13.65;8.38;;;3.90;52.80;;;;;;5029722;28;46425;-70
2024/01/07 03:28:43;;;;;;;13.77;9.63;;;3.90;52.90;;;;;;5031239;28;46396;-69
2024/01/07 03:31:14;;;;;;;13.27;8.90;;;3.90;52.80;;;;;;5033272;28;46386;-70
2024/01/07 03:33:41;;;;;;;13.53;8.67;;;3.90;52.90;;;;;;5032268;28;46486;-71
2024/01/07 03:36:10;;;;;;;13.07;8.70;;;3.90;52.90;;;;;;5034179;28;45874;-70
2024/01/07 03:38:37;;;;;;;12.40;8.87;;;3.90;54.20;;;;;;5030346;28;46836;-70
2024/01/07 03:41:04;;;;;;;11.13;8.27;;;3.90;53.00;;;;;;5033663;28;45884;-71
2024/01/07 03:43:30;;;;;;;11.90;8.67;;;3.90;53.00;;;;;;5031233;28;46573;-70
2024/01/07 03:45:55;;;;;;;13.97;8.60;;;3.90;53.10;;;;;;5033810;28;46518;-70
2024/01/07 03:48:21;;;;;;;13.70;9.10;;;3.90;53.20;;;;;;5030800;28;46638;-71
2024/01/07 03:50:46;;;;;;;13.83;8.97;;;3.90;53.20;;;;;;5030262;28;46581;-71
2024/01/07 03:53:12;;;;;;;12.23;8.93;;;3.90;53.20;;;;;;5030991;28;46407;-70
2024/01/07 03:55:38;;;;;;;15.03;9.70;;;3.90;53.20;;;;;;5028896;28;46409;-70
2024/01/07 03:58:05;;;;;;;11.30;8.60;;;3.90;53.10;;;;;;5029945;28;46499;-71
2024/01/07 04:00:31;;;;;;;12.03;8.40;;;3.90;53.30;;;;;;5030807;28;46790;-70
2024/01/07 04:02:57;;;;;;;13.50;8.40;;;3.80;53.30;;;;;;5013877;28;46432;-69
2024/01/07 04:05:22;;;;;;;12.80;8.57;;;3.70;53.40;;;;;;5032131;28;46674;-72
2024/01/07 04:07:48;;;;;;;12.70;8.80;;;3.70;53.70;;;;;;5031856;28;46922;-71
2024/01/07 04:10:16;;;;;;;12.30;8.53;;;3.70;53.70;;;;;;5013448;28;45903;-71
2024/01/07 04:12:42;;;;;;;13.20;9.23;;;3.70;53.60;;;;;;5027440;28;47248;-72
2024/01/07 04:15:08;;;;;;;12.60;8.40;;;3.60;53.70;;;;;;5031055;28;46662;-71
2024/01/07 04:17:33;;;;;;;12.53;9.00;;;3.50;53.90;;;;;;5031538;28;46400;-71
2024/01/07 04:19:59;;;;;;;15.17;9.33;;;3.60;53.90;;;;;;5031811;28;46393;-69
2024/01/07 04:22:24;;;;;;;13.23;9.00;;;3.60;53.80;;;;;;5028593;28;46753;-70
2024/01/07 04:24:50;;;;;;;13.00;9.17;;;3.60;53.60;;;;;;5031187;28;46580;-69
2024/01/07 04:27:15;;;;;;;15.07;8.80;;;3.50;53.80;;;;;;5029436;28;46459;-71
2024/01/07 04:29:41;;;;;;;17.57;10.97;;;3.40;54.30;;;;;;5028664;28;46401;-71
2024/01/07 04:32:07;;;;;;;11.77;7.60;;;3.30;54.80;;;;;;5027103;28;47051;-72
2024/01/07 04:34:32;;;;;;;12.07;7.73;;;3.30;55.40;;;;;;5031469;28;46543;-71
2024/01/07 04:36:58;;;;;;;11.80;8.03;;;3.10;56.20;;;;;;5030695;28;46672;-71
2024/01/07 04:39:23;;;;;;;10.50;7.23;;;3.10;56.60;;;;;;5028248;28;46596;-71
2024/01/07 04:41:49;;;;;;;15.43;8.47;;;3.00;57.30;;;;;;5028778;28;47158;-69
2024/01/07 04:44:14;;;;;;;14.07;8.90;;;2.90;58.70;;;;;;5031932;28;46488;-69
2024/01/07 04:46:40;;;;;;;13.97;8.77;;;2.90;59.40;;;;;;5029349;28;46887;-71
2024/01/07 04:49:06;;;;;;;13.63;8.80;;;2.90;59.40;;;;;;5033880;28;46445;-71
2024/01/07 04:51:32;;;;;;;13.85;8.80;;;2.90;59.40;;;;;;5031428;28;47055;-71
2024/01/07 04:53:58;;;;;;;14.45;9.95;;;2.90;59.40;;;;;;5029866;28;46765;-71
2024/01/07 04:56:24;;;;;;;14.23;9.33;;;2.90;59.40;;;;;;5030546;28;46461;-71
2024/01/07 04:58:49;;;;;;;12.17;8.93;;;3.10;58.90;;;;;;5031113;28;46464;-71
2024/01/07 05:01:15;;;;;;;13.57;9.13;;;3.00;58.80;;;;;;5030456;28;46730;-70
2024/01/07 05:03:40;;;;;;;16.63;10.30;;;3.00;59.30;;;;;;5029046;28;46397;-70
2024/01/07 05:06:09;;;;;;;13.33;8.97;;;3.00;59.40;;;;;;5029418;28;46514;-70
2024/01/07 05:08:40;;;;;;;16.60;11.10;;;3.00;59.40;;;;;;5029207;28;46351;-70
2024/01/07 05:11:06;;;;;;;15.80;10.20;;;2.90;59.40;;;;;;5029537;28;46407;-70
2024/01/07 05:13:32;;;;;;;18.30;11.17;;;2.90;59.40;;;;;;5030121;28;46419;-71
2024/01/07 05:15:57;;;;;;;17.70;11.20;;;2.90;59.40;;;;;;5026218;28;46790;-71
2024/01/07 05:18:24;;;;;;;17.30;11.40;;;2.90;59.40;;;;;;5031856;28;46922;-70
2024/01/07 05:20:50;;;;;;;17.02;11.38;;;3.00;59.40;;;;;;5029263;28;46401;-70
2024/01/07 05:23:16;;;;;;;18.17;11.15;;;3.00;59.40;;;;;;5030787;28;45891;-70
2024/01/07 05:25:43;;;;;;;17.00;10.83;;;3.10;59.30;;;;;;5028371;28;46712;-69
2024/01/07 05:28:08;;;;;;;18.17;10.45;;;3.10;59.40;;;;;;5027094;28;46394;-70
2024/01/07 05:30:34;;;;;;;13.90;9.50;;;2.90;59.40;;;;;;5027428;28;46019;-69
2024/01/07 05:32:59;;;;;;;14.17;10.00;;;2.80;60.00;;;;;;5029460;28;46426;-70
2024/01/07 05:35:25;;;;;;;16.20;10.43;;;2.80;60.50;;;;;;5028480;28;46461;-70
2024/01/07 05:37:51;;;;;;;20.57;11.30;;;2.80;60.60;;;;;;5030129;28;46587;-69
2024/01/07 05:40:16;;;;;;;16.43;9.97;;;2.80;60.50;;;;;;5028643;28;46995;-71
2024/01/07 05:42:42;;;;;;;16.33;11.10;;;2.80;60.60;;;;;;5029012;28;46388;-70
2024/01/07 05:45:08;;;;;;;20.90;11.97;;;2.80;60.50;;;;;;5030155;28;46464;-71
2024/01/07 05:47:33;;;;;;;19.83;12.23;;;2.80;61.50;;;;;;5028859;28;46551;-71
2024/01/07 05:49:59;;;;;;;20.77;12.87;;;2.90;60.40;;;;;;5029094;28;47244;-71
2024/01/07 05:52:25;;;;;;;16.50;11.50;;;2.90;60.30;;;;;;5026770;28;46493;-71
2024/01/07 05:54:50;;;;;;;23.03;12.83;;;3.00;60.50;;;;;;5029425;28;46504;-70
2024/01/07 05:57:16;;;;;;;21.30;12.97;;;2.90;60.40;;;;;;5029918;28;46536;-71
2024/01/07 05:59:44;;;;;;;19.73;13.07;;;2.90;60.40;;;;;;5027996;28;46370;-70
2024/01/07 06:02:09;;;;;;;20.17;12.63;;;2.90;60.40;;;;;;5028328;28;46405;-71
2024/01/07 06:04:36;;;;;;;19.00;12.40;;;2.90;60.50;;;;;;5027811;28;46349;-70
2024/01/07 06:07:02;;;;;;;22.80;12.60;;;2.90;60.50;;;;;;5027383;28;46898;-70
2024/01/07 06:09:28;;;;;;;20.40;11.20;;;2.90;60.50;;;;;;5013943;28;48027;-70
2024/01/07 06:11:54;;;;;;;18.23;12.40;;;2.80;60.90;;;;;;5026922;28;46484;-71
2024/01/07 06:14:19;;;;;;;24.63;14.43;;;2.80;61.30;;;;;;5027002;28;46467;-70
2024/01/07 06:16:45;;;;;;;18.13;12.30;;;2.70;61.60;;;;;;5026809;28;46390;-70
2024/01/07 06:19:10;;;;;;;21.40;13.07;;;2.80;61.80;;;;;;5032190;28;46448;-70
2024/01/07 06:21:36;;;;;;;22.20;13.90;;;2.80;61.60;;;;;;5026341;28;46876;-70
2024/01/07 06:24:01;;;;;;;19.70;12.83;;;2.80;61.70;;;;;;5029145;28;45847;-70
2024/01/07 06:26:27;;;;;;;22.27;12.93;;;2.80;61.50;;;;;;5029646;28;46514;-70
2024/01/07 06:28:53;;;;;;;26.50;14.77;;;2.80;61.40;;;;;;5027884;28;47972;-71
2024/01/07 06:31:18;;;;;;;24.53;14.40;;;2.90;61.50;;;;;;5026875;28;46382;-70
2024/01/07 06:33:44;;;;;;;24.80;15.03;;;2.90;61.40;;;;;;5028032;28;46444;-70
2024/01/07 06:36:09;;;;;;;22.27;14.30;;;2.90;61.40;;;;;;5029033;28;46417;-70
2024/01/07 06:38:35;;;;;;;23.63;14.33;;;2.90;61.40;;;;;;5029879;28;46693;-70
2024/01/07 06:41:03;;;;;;;24.60;14.90;;;2.80;61.50;;;;;;5028257;28;46607;-70
2024/01/07 06:43:29;;;;;;;24.38;14.15;;;2.90;61.60;;;;;;5029487;28;46191;-70
2024/01/07 06:45:55;;;;;;;23.30;13.60;;;2.80;61.50;;;;;;5029696;28;46917;-70
2024/01/07 06:48:20;;;;;;;23.33;14.40;;;2.80;61.70;;;;;;5029377;28;46460;-70
2024/01/07 06:50:46;;;;;;;25.03;14.23;;;2.80;61.70;;;;;;5028530;28;46448;-70
2024/01/07 06:53:11;;;;;;;24.57;14.93;;;2.80;61.90;;;;;;5037306;28;46448;-71
2024/01/07 06:55:37;;;;;;;23.00;13.20;;;2.80;61.70;;;;;;5033045;28;46466;-70
2024/01/07 06:58:03;;;;;;;26.57;15.23;;;2.90;61.80;;;;;;5029570;28;46894;-70
2024/01/07 07:00:28;;;;;;;21.77;13.27;;;2.90;61.70;;;;;;5030321;28;46744;-70
2024/01/07 07:02:54;;;;;;;24.77;14.57;;;2.90;61.80;;;;;;5030733;28;46877;-71
2024/01/07 07:05:19;;;;;;;25.70;16.23;;;2.90;61.90;;;;;;5032708;28;46405;-70
2024/01/07 07:07:45;;;;;;;21.07;12.43;;;2.90;61.70;;;;;;5030176;28;47016;-70
2024/01/07 07:10:11;;;;;;;24.70;13.97;;;2.90;61.80;;;;;;5027112;28;46450;-71
2024/01/07 07:12:36;;;;;;;23.90;14.07;;;2.90;62.00;;;;;;5031035;28;46431;-70
2024/01/07 07:15:02;;;;;;;27.23;15.10;;;2.90;62.20;;;;;;5031499;28;46770;-70
2024/01/07 07:17:28;;;;;;;23.33;14.00;;;2.80;62.20;;;;;;5028839;28;46541;-71
2024/01/07 07:19:53;;;;;;;24.67;14.23;;;2.80;62.30;;;;;;5028190;28;46472;-71
2024/01/07 07:22:19;;;;;;;24.60;14.47;;;2.80;62.60;;;;;;5027839;28;46496;-69
2024/01/07 07:24:44;;;;;;;25.37;15.47;;;2.80;62.90;;;;;;5026595;28;46519;-69
2024/01/07 07:27:10;;;;;;;25.40;13.73;;;2.80;63.20;;;;;;5030979;28;47112;-68
2024/01/07 07:29:36;;;;;;;25.03;14.50;;;2.70;63.10;;;;;;5030777;28;46470;-71
2024/01/07 07:32:01;;;;;;;23.27;13.20;;;2.80;63.20;;;;;;5031985;28;46417;-70
2024/01/07 07:34:27;;;;;;;24.67;13.93;;;2.80;63.20;;;;;;5032558;28;46711;-70
2024/01/07 07:36:53;;;;;;;23.33;15.03;;;2.80;63.30;;;;;;5029813;28;46361;-69
2024/01/07 07:39:18;;;;;;;23.57;14.60;;;2.80;63.40;;;;;;5029860;28;46419;-71
2024/01/07 07:41:44;;;;;;;24.10;12.80;;;2.70;63.30;;;;;;5031812;28;46658;-71
2024/01/07 07:44:09;;;;;;;24.70;13.80;;;2.80;63.50;;;;;;5032678;28;46444;-70
2024/01/07 07:46:35;;;;;;;23.40;14.30;;;2.70;63.40;;;;;;5032748;28;46718;-70
2024/01/07 07:49:01;;;;;;;24.60;14.63;;;2.70;63.50;;;;;;5030930;28;46361;-71
2024/01/07 07:51:28;;;;;;;23.10;14.27;;;2.80;63.50;;;;;;5029870;28;46461;-70
2024/01/07 07:53:53;;;;;;;24.30;14.83;;;2.80;63.60;;;;;;5027831;28;46587;-66
2024/01/07 07:56:19;;;;;;;21.40;12.27;;;2.70;63.50;;;;;;5027385;28;46488;-66
2024/01/07 07:58:44;;;;;;;19.70;12.90;;;2.70;63.70;;;;;;5029736;28;46829;-65
2024/01/07 08:01:10;;;;;;;19.57;12.27;;;2.70;63.60;;;;;;5028155;28;46400;-66
2024/01/07 08:03:36;;;;;;;26.47;15.10;;;2.70;63.60;;;;;;5029711;28;46419;-66
2024/01/07 08:06:02;;;;;;;24.90;13.60;;;2.80;63.60;;;;;;5015585;28;47009;-65
2024/01/07 08:08:28;;;;;;;25.83;14.35;;;2.80;63.60;;;;;;5029783;28;46464;-65
2024/01/07 08:10:54;;;;;;;22.50;13.20;;;2.80;63.50;;;;;;5027471;28;46405;-66
2024/01/07 08:13:19;;;;;;;21.13;13.17;;;2.80;63.50;;;;;;5030465;28;46723;-67
2024/01/07 08:15:45;;;;;;;21.50;12.87;;;2.70;63.50;;;;;;5029880;28;47000;-66
2024/01/07 08:18:10;;;;;;;21.60;13.43;;;2.70;63.80;;;;;;5021638;28;46408;-66
2024/01/07 08:20:36;;;;;;;21.50;13.13;;;2.70;63.90;;;;;;5027974;28;46373;-65
2024/01/07 08:23:02;;;;;;;20.30;13.50;;;2.60;64.00;;;;;;5021692;28;46421;-66
2024/01/07 08:25:27;;;;;;;18.80;12.37;;;2.60;64.30;;;;;;5029414;28;46438;-64
2024/01/07 08:27:53;;;;;;;20.83;12.00;;;2.70;64.40;;;;;;5031068;28;46362;-67
2024/01/07 08:30:18;;;;;;;20.53;12.43;;;2.70;64.30;;;;;;5003755;28;46462;-65
2024/01/07 08:32:44;;;;;;;22.50;13.40;;;2.60;64.40;;;;;;5028249;28;46568;-65
2024/01/07 08:35:10;;;;;;;21.97;13.00;;;2.60;65.60;;;;;;5011097;28;48331;-65
2024/01/07 08:37:35;;;;;;;20.07;11.40;;;2.70;64.60;;;;;;5009089;28;46484;-65
2024/01/07 08:40:01;;;;;;;18.70;12.10;;;2.60;64.70;;;;;;4993364;28;46505;-65
2024/01/07 08:42:29;;;;;;;21.20;13.03;;;2.60;65.20;;;;;;5025685;28;46947;-65
2024/01/07 08:44:55;;;;;;;23.00;12.80;;;2.60;65.20;;;;;;5026385;28;46453;-68
2024/01/07 08:47:21;;;;;;;23.93;13.50;;;2.60;65.20;;;;;;5026528;28;46433;-67
2024/01/07 08:49:46;;;;;;;20.30;12.10;;;2.60;65.10;;;;;;5028939;28;47205;-67
2024/01/07 08:52:12;;;;;;;18.77;12.37;;;2.70;64.90;;;;;;5026731;28;46791;-67
2024/01/07 08:54:37;;;;;;;20.80;12.77;;;2.70;64.70;;;;;;5026597;28;46488;-69
2024/01/07 08:57:03;;;;;;;22.80;12.17;;;2.70;64.80;;;;;;5024422;28;46507;-68
2024/01/07 08:59:29;;;;;;;24.00;13.87;;;2.70;64.70;;;;;;5028057;28;46540;-68
2024/01/07 09:01:54;;;;;;;25.13;15.10;;;2.70;64.70;;;;;;5024981;28;46857;-67
2024/01/07 09:04:20;;;;;;;27.47;14.40;;;2.60;64.90;;;;;;5024183;28;46486;-68
2024/01/07 09:06:45;;;;;;;30.33;15.93;;;2.60;65.00;;;;;;5025359;28;46520;-67
2024/01/07 09:09:11;;;;;;;25.60;13.97;;;2.60;64.90;;;;;;5026926;28;46526;-69
2024/01/07 09:11:37;;;;;;;23.30;13.33;;;2.60;65.00;;;;;;5022797;28;45880;-69
2024/01/07 09:14:05;;;;;;;29.63;15.27;;;2.60;65.20;;;;;;5025730;28;47022;-69
2024/01/07 09:16:31;;;;;;;26.17;14.52;;;2.70;65.00;;;;;;5025248;28;46555;-68
2024/01/07 09:18:56;;;;;;;24.90;14.43;;;2.70;64.70;;;;;;5026987;28;46496;-69
2024/01/07 09:21:25;;;;;;;25.50;13.53;;;2.80;64.60;;;;;;5026157;28;46521;-68
2024/01/07 09:23:51;;;;;;;25.20;13.83;;;2.80;64.70;;;;;;5027142;28;46662;-68
2024/01/07 09:26:16;;;;;;;24.73;13.80;;;2.70;64.70;;;;;;5025318;28;46369;-68
2024/01/07 09:28:42;;;;;;;23.27;12.27;;;2.70;65.00;;;;;;5028141;28;46500;-68
2024/01/07 09:31:08;;;;;;;27.00;14.50;;;2.70;65.00;;;;;;5008670;28;46562;-68
2024/01/07 09:33:34;;;;;;;30.20;13.53;;;2.70;65.20;;;;;;5025023;28;46990;-66
2024/01/07 09:35:59;;;;;;;20.50;12.10;;;2.70;65.20;;;;;;5017268;23;46412;-63
2024/01/07 09:38:25;;;;;;;24.23;13.50;;;2.70;65.20;;;;;;5033696;28;46409;-65
2024/01/07 09:40:53;;;;;;;23.07;12.53;;;2.70;65.40;;;;;;5033135;28;46799;-65
2024/01/07 09:43:19;;;;;;;24.73;14.10;;;2.70;65.40;;;;;;5018920;28;46811;-64
2024/01/07 09:45:47;;;;;;;24.70;13.68;;;2.50;65.80;;;;;;5012899;28;46456;-66
2024/01/07 09:48:13;;;;;;;23.92;13.98;;;2.60;65.70;;;;;;5010385;28;46423;-66
2024/01/07 09:50:39;;;;;;;21.80;11.80;;;2.60;65.70;;;;;;5010415;28;46776;-65
2024/01/07 09:53:07;;;;;;;23.03;12.90;;;2.70;65.50;;;;;;5010630;28;47314;-64
2024/01/07 09:56:07;;;;;;;23.90;13.30;;;2.70;65.60;;;;;;5013572;28;46455;-66
2024/01/07 09:58:33;;;;;;;22.77;12.60;;;2.70;65.60;;;;;;5011741;28;46390;-65
2024/01/07 10:00:59;;;;;;;23.70;12.70;;;2.80;65.30;;;;;;4990127;28;46507;-66
2024/01/07 10:03:25;;;;;;;26.90;14.32;;;2.80;65.20;;;;;;5011221;28;47354;-63
2024/01/07 10:05:51;;;;;;;23.30;12.70;;;2.80;65.20;;;;;;5009472;28;46412;-66
2024/01/07 10:08:17;;;;;;;24.13;13.20;;;2.80;65.20;;;;;;5013888;28;46494;-66
2024/01/07 10:10:43;;;;;;;20.27;11.07;;;2.80;65.20;;;;;;5010168;28;45804;-67
2024/01/07 10:13:09;;;;;;;20.43;12.17;;;2.80;65.20;;;;;;5009412;28;46958;-66
2024/01/07 10:15:34;;;;;;;21.83;12.10;;;2.80;65.30;;;;;;5006810;28;46496;-66
2024/01/07 10:18:05;;;;;;;22.10;13.10;;;2.90;65.20;;;;;;5011046;28;46825;-66
2024/01/07 10:20:34;;;;;;;23.90;12.67;;;2.90;65.10;;;;;;5017762;28;46465;-67
2024/01/07 10:23:03;;;;;;;21.85;12.85;;;2.90;65.10;;;;;;5018761;28;46490;-65
2024/01/07 10:25:32;;;;;;;22.00;12.75;;;3.00;65.00;;;;;;5027459;28;46226;-66
2024/01/07 10:28:01;;;;;;;21.05;11.48;;;3.00;64.80;;;;;;5028662;28;46386;-65
2024/01/07 10:30:28;;;;;;;20.77;10.77;;;3.00;64.60;;;;;;5029886;28;46386;-65
2024/01/07 10:32:58;;;;;;;20.90;12.25;;;2.90;65.10;;;;;;5029401;28;46644;-67
2024/01/07 10:35:32;;;;;;;20.15;11.32;;;2.90;65.20;;;;;;5031932;28;46487;-64
2024/01/07 10:37:57;;;;;;;20.30;10.77;;;2.80;65.20;;;;;;5031255;28;46666;-61
2024/01/07 10:40:25;;;;;;;19.50;10.20;;;2.80;65.40;;;;;;5030105;28;46560;-65
2024/01/07 10:42:52;;;;;;;18.58;10.55;;;2.70;65.70;;;;;;5020539;28;46560;-65
2024/01/07 10:45:18;;;;;;;18.98;10.65;;;2.50;66.00;;;;;;5032750;28;46556;-66
2024/01/07 10:47:50;;;;;;;15.10;10.20;;;2.60;65.90;;;;;;5029929;28;46528;-65
2024/01/07 10:50:18;;;;;;;19.17;11.37;;;2.50;65.90;;;;;;5035068;28;46258;-65
2024/01/07 10:52:50;;;;;;;21.20;11.73;;;2.50;65.80;;;;;;5033802;28;46337;-66
2024/01/07 10:55:18;;;;;;;20.80;11.13;;;2.40;66.10;;;;;;5030009;28;46481;-64
2024/01/07 10:57:49;;;;;;;19.48;11.38;;;2.40;66.10;;;;;;5032620;28;46432;-67
2024/01/07 11:00:18;;;;;;;18.52;11.20;;;2.30;66.00;;;;;;5034859;28;46360;-64
2024/01/07 11:02:53;;;;;;;25.42;12.70;;;2.30;66.20;;;;;;5030273;28;47294;-64
2024/01/07 11:05:26;;;;;;;19.17;10.45;;;2.40;66.20;;;;;;5031649;28;46345;-65
2024/01/07 11:08:27;;;;;;;21.80;11.68;;;2.30;66.40;;;;;;5032692;28;46441;-65
2024/01/07 11:11:04;;;;;;;20.40;11.63;;;2.40;66.20;;;;;;5006358;28;46490;-66
2024/01/07 11:13:35;;;;;;;18.95;9.85;;;2.40;65.80;;;;;;5016017;28;49337;-66
2024/01/07 11:16:02;;;;;;;18.50;11.02;;;2.50;65.80;;;;;;5029650;28;46355;-65
2024/01/07 11:18:33;;;;;;;19.27;11.13;;;2.40;65.70;;;;;;5013145;28;45879;-65
2024/01/07 11:21:03;;;;;;;18.13;10.57;;;2.40;66.00;;;;;;5027051;28;45871;-66
2024/01/07 11:23:30;;;;;;;17.75;10.40;;;2.20;66.30;;;;;;5033040;28;46404;-67
2024/01/07 11:25:57;;;;;;;20.65;11.45;;;2.30;66.40;;;;;;5028623;28;46460;-66
2024/01/07 11:28:42;;;;;;;20.50;10.88;;;2.20;66.60;;;;;;5031086;28;46175;-65
2024/01/07 11:31:08;;;;;;;19.98;10.85;;;2.20;66.80;;;;;;5032525;28;46444;-66
2024/01/07 11:33:36;;;;;;;20.45;11.50;;;2.10;67.00;;;;;;5031118;28;47192;-66
2024/01/07 11:36:04;;;;;;;16.73;8.43;;;2.20;67.10;;;;;;5031199;28;46384;-66
2024/01/07 11:38:30;;;;;;;20.10;11.30;;;2.30;66.90;;;;;;5033735;28;46713;-68
2024/01/07 11:40:57;;;;;;;19.73;11.10;;;2.30;66.60;;;;;;5032936;28;46692;-66
2024/01/07 11:43:22;;;;;;;17.30;9.70;;;2.40;66.50;;;;;;5032192;28;46945;-65
2024/01/07 11:45:51;;;;;;;15.90;9.57;;;2.30;66.70;;;;;;5028407;28;46456;-65
2024/01/07 11:48:18;;;;;;;14.30;7.85;;;2.20;66.90;;;;;;5029060;28;46331;-67
2024/01/07 11:50:43;;;;;;;16.05;9.35;;;2.30;67.10;;;;;;5012591;28;46924;-66
2024/01/07 11:53:11;;;;;;;14.43;9.33;;;2.30;67.30;;;;;;5031081;28;46519;-66
2024/01/07 11:55:37;;;;;;;14.57;9.75;;;2.20;67.20;;;;;;5031733;28;46690;-66
2024/01/07 11:58:03;;;;;;;16.80;9.53;;;2.40;67.20;;;;;;5031562;28;46427;-66
2024/01/07 12:00:32;;;;;;;16.97;9.43;;;2.30;67.30;;;;;;5031414;28;46377;-65
2024/01/07 12:02:58;;;;;;;15.07;8.70;;;2.50;67.10;;;;;;5031692;28;47299;-67
2024/01/07 12:05:24;;;;;;;20.33;10.60;;;2.50;67.10;;;;;;5031517;28;46476;-68
2024/01/07 12:07:49;;;;;;;16.30;9.17;;;2.50;67.20;;;;;;5030665;28;46782;-66
2024/01/07 12:10:16;;;;;;;16.43;9.33;;;2.50;67.00;;;;;;5031075;28;46559;-66
2024/01/07 12:12:42;;;;;;;12.83;8.00;;;2.40;67.00;;;;;;5003487;28;46989;-67
2024/01/07 12:15:08;;;;;;;19.45;9.75;;;2.40;67.00;;;;;;5027786;28;46727;-67
2024/01/07 12:17:34;;;;;;;15.40;9.60;;;2.50;67.00;;;;;;5026985;28;46388;-65
2024/01/07 12:20:00;;;;;;;13.60;8.70;;;2.50;66.90;;;;;;5021892;28;46344;-67
2024/01/07 12:22:29;;;;;;;10.93;7.32;;;2.40;66.90;;;;;;5023630;28;46434;-67
2024/01/07 12:25:02;;;;;;;13.60;7.95;;;2.30;67.20;;;;;;5023422;28;46508;-70
2024/01/07 12:27:28;;;;;;;15.60;8.38;;;2.10;67.50;;;;;;5030722;28;46500;-64
2024/01/07 12:29:56;;;;;;;15.47;8.57;;;2.10;67.90;;;;;;5026576;28;46979;-65
2024/01/07 12:32:21;;;;;;;20.17;9.88;;;1.80;68.50;;;;;;5030606;28;46112;-65
2024/01/07 12:34:48;;;;;;;14.20;8.53;;;1.80;68.50;;;;;;5027880;28;47007;-65
2024/01/07 12:37:14;;;;;;;15.98;9.05;;;1.80;68.80;;;;;;5023261;28;46349;-68